sensor_id;sensor_type;location;lat;lon;timestamp;P1;durP1;ratioP1;P2;durP2;ratioP2
4601;SDS011;2313;48.552;9.370;2023-04-29T00:00:03;1.40;;;1.30;;
4601;SDS011;2313;48.552;9.370;2023-04-29T00:02:33;2.23;;;1.00;;
4601;SDS011;2313;48.552;9.370;2023-04-29T00:04:59;3.67;;;1.10;;
4601;SDS011;2313;48.552;9.370;2023-04-29T00:07:25;1.80;;;1.37;;
4601;SDS011;2313;48.552;9.370;2023-04-29T00:09:51;1.97;;;1.20;;
4601;SDS011;2313;48.552;9.370;2023-04-29T00:12:17;2.23;;;1.30;;
4601;SDS011;2313;48.552;9.370;2023-04-29T00:14:42;1.27;;;1.17;;
4601;SDS011;2313;48.552;9.370;2023-04-29T00:17:08;1.30;;;1.20;;
4601;SDS011;2313;48.552;9.370;2023-04-29T00:19:34;1.60;;;1.13;;
4601;SDS011;2313;48.552;9.370;2023-04-29T00:21:59;1.53;;;1.40;;
4601;SDS011;2313;48.552;9.370;2023-04-29T00:24:25;5.07;;;1.53;;
4601;SDS011;2313;48.552;9.370;2023-04-29T00:26:51;1.43;;;1.27;;
4601;SDS011;2313;48.552;9.370;2023-04-29T00:29:17;1.53;;;1.40;;
4601;SDS011;2313;48.552;9.370;2023-04-29T00:31:43;2.47;;;1.43;;
4601;SDS011;2313;48.552;9.370;2023-04-29T00:34:09;5.70;;;1.47;;
4601;SDS011;2313;48.552;9.370;2023-04-29T00:36:35;5.93;;;1.40;;
4601;SDS011;2313;48.552;9.370;2023-04-29T00:39:01;1.87;;;1.40;;
4601;SDS011;2313;48.552;9.370;2023-04-29T00:41:27;4.20;;;1.50;;
4601;SDS011;2313;48.552;9.370;2023-04-29T00:43:53;2.60;;;1.20;;
4601;SDS011;2313;48.552;9.370;2023-04-29T00:46:19;1.30;;;1.10;;
4601;SDS011;2313;48.552;9.370;2023-04-29T00:48:45;3.63;;;1.80;;
4601;SDS011;2313;48.552;9.370;2023-04-29T00:51:10;1.50;;;1.40;;
4601;SDS011;2313;48.552;9.370;2023-04-29T00:53:37;3.07;;;1.37;;
4601;SDS011;2313;48.552;9.370;2023-04-29T00:56:03;4.50;;;1.40;;
4601;SDS011;2313;48.552;9.370;2023-04-29T00:58:31;1.30;;;1.20;;
4601;SDS011;2313;48.552;9.370;2023-04-29T01:00:59;2.60;;;1.40;;
4601;SDS011;2313;48.552;9.370;2023-04-29T01:03:29;6.00;;;2.00;;
4601;SDS011;2313;48.552;9.370;2023-04-29T01:14:42;1.87;;;1.73;;
4601;SDS011;2313;48.552;9.370;2023-04-29T01:17:14;4.60;;;1.70;;
4601;SDS011;2313;48.552;9.370;2023-04-29T01:22:11;1.93;;;1.23;;
4601;SDS011;2313;48.552;9.370;2023-04-29T01:24:42;1.83;;;1.73;;
4601;SDS011;2313;48.552;9.370;2023-04-29T01:30:27;3.97;;;1.60;;
4601;SDS011;2313;48.552;9.370;2023-04-29T01:32:55;3.00;;;1.60;;
4601;SDS011;2313;48.552;9.370;2023-04-29T01:44:14;1.83;;;1.63;;
4601;SDS011;2313;48.552;9.370;2023-04-29T01:46:42;2.27;;;1.97;;
4601;SDS011;2313;48.552;9.370;2023-04-29T01:49:13;2.43;;;1.80;;
4601;SDS011;2313;48.552;9.370;2023-04-29T01:51:38;5.30;;;1.50;;
4601;SDS011;2313;48.552;9.370;2023-04-29T01:54:04;3.10;;;1.93;;
4601;SDS011;2313;48.552;9.370;2023-04-29T01:56:29;4.70;;;1.70;;
4601;SDS011;2313;48.552;9.370;2023-04-29T01:58:55;4.70;;;2.00;;
4601;SDS011;2313;48.552;9.370;2023-04-29T02:01:21;1.90;;;1.80;;
4601;SDS011;2313;48.552;9.370;2023-04-29T02:03:46;4.73;;;1.50;;
4601;SDS011;2313;48.552;9.370;2023-04-29T02:06:12;3.03;;;1.80;;
4601;SDS011;2313;48.552;9.370;2023-04-29T02:08:37;2.57;;;1.30;;
4601;SDS011;2313;48.552;9.370;2023-04-29T02:11:03;2.80;;;1.40;;
4601;SDS011;2313;48.552;9.370;2023-04-29T02:13:28;7.97;;;3.70;;
4601;SDS011;2313;48.552;9.370;2023-04-29T02:15:54;2.23;;;1.50;;
4601;SDS011;2313;48.552;9.370;2023-04-29T02:18:20;3.00;;;1.83;;
4601;SDS011;2313;48.552;9.370;2023-04-29T02:20:45;2.50;;;1.60;;
4601;SDS011;2313;48.552;9.370;2023-04-29T02:23:11;2.50;;;1.70;;
4601;SDS011;2313;48.552;9.370;2023-04-29T02:25:37;5.20;;;1.90;;
4601;SDS011;2313;48.552;9.370;2023-04-29T02:28:02;1.53;;;1.43;;
4601;SDS011;2313;48.552;9.370;2023-04-29T02:30:28;2.53;;;2.00;;
4601;SDS011;2313;48.552;9.370;2023-04-29T02:32:54;6.83;;;1.97;;
4601;SDS011;2313;48.552;9.370;2023-04-29T02:35:20;1.90;;;1.57;;
4601;SDS011;2313;48.552;9.370;2023-04-29T02:37:45;1.50;;;1.40;;
4601;SDS011;2313;48.552;9.370;2023-04-29T02:40:11;2.70;;;1.67;;
4601;SDS011;2313;48.552;9.370;2023-04-29T02:42:37;1.57;;;1.40;;
4601;SDS011;2313;48.552;9.370;2023-04-29T02:45:03;1.50;;;1.40;;
4601;SDS011;2313;48.552;9.370;2023-04-29T02:47:28;2.00;;;1.43;;
4601;SDS011;2313;48.552;9.370;2023-04-29T02:49:54;2.60;;;1.73;;
4601;SDS011;2313;48.552;9.370;2023-04-29T02:52:20;2.30;;;2.07;;
4601;SDS011;2313;48.552;9.370;2023-04-29T02:54:45;3.03;;;1.73;;
4601;SDS011;2313;48.552;9.370;2023-04-29T02:57:11;1.70;;;1.60;;
4601;SDS011;2313;48.552;9.370;2023-04-29T02:59:36;1.50;;;1.40;;
4601;SDS011;2313;48.552;9.370;2023-04-29T03:02:02;2.07;;;1.97;;
4601;SDS011;2313;48.552;9.370;2023-04-29T03:04:27;2.10;;;1.70;;
4601;SDS011;2313;48.552;9.370;2023-04-29T03:06:54;5.43;;;2.27;;
4601;SDS011;2313;48.552;9.370;2023-04-29T03:09:21;2.83;;;1.83;;
4601;SDS011;2313;48.552;9.370;2023-04-29T03:11:47;7.20;;;1.50;;
4601;SDS011;2313;48.552;9.370;2023-04-29T03:14:12;6.60;;;1.90;;
4601;SDS011;2313;48.552;9.370;2023-04-29T03:16:38;1.93;;;1.80;;
4601;SDS011;2313;48.552;9.370;2023-04-29T03:19:03;2.00;;;1.90;;
4601;SDS011;2313;48.552;9.370;2023-04-29T03:21:29;2.13;;;1.93;;
4601;SDS011;2313;48.552;9.370;2023-04-29T03:23:55;3.50;;;1.80;;
4601;SDS011;2313;48.552;9.370;2023-04-29T03:26:20;2.77;;;2.20;;
4601;SDS011;2313;48.552;9.370;2023-04-29T03:28:48;3.80;;;2.20;;
4601;SDS011;2313;48.552;9.370;2023-04-29T03:31:13;2.53;;;2.03;;
4601;SDS011;2313;48.552;9.370;2023-04-29T03:33:40;2.90;;;1.90;;
4601;SDS011;2313;48.552;9.370;2023-04-29T03:36:06;2.10;;;2.00;;
4601;SDS011;2313;48.552;9.370;2023-04-29T03:38:32;2.37;;;2.13;;
4601;SDS011;2313;48.552;9.370;2023-04-29T03:40:58;1.90;;;1.80;;
4601;SDS011;2313;48.552;9.370;2023-04-29T03:43:24;4.80;;;1.97;;
4601;SDS011;2313;48.552;9.370;2023-04-29T03:45:50;7.57;;;2.20;;
4601;SDS011;2313;48.552;9.370;2023-04-29T03:48:16;1.80;;;1.70;;
4601;SDS011;2313;48.552;9.370;2023-04-29T03:50:42;3.63;;;1.80;;
4601;SDS011;2313;48.552;9.370;2023-04-29T03:53:08;3.93;;;2.23;;
4601;SDS011;2313;48.552;9.370;2023-04-29T03:55:33;7.43;;;2.00;;
4601;SDS011;2313;48.552;9.370;2023-04-29T03:57:59;3.70;;;1.93;;
4601;SDS011;2313;48.552;9.370;2023-04-29T04:00:25;2.20;;;2.00;;
4601;SDS011;2313;48.552;9.370;2023-04-29T04:02:55;2.63;;;1.90;;
4601;SDS011;2313;48.552;9.370;2023-04-29T04:05:21;6.83;;;1.70;;
4601;SDS011;2313;48.552;9.370;2023-04-29T04:07:49;2.30;;;2.10;;
4601;SDS011;2313;48.552;9.370;2023-04-29T04:10:15;3.90;;;2.80;;
4601;SDS011;2313;48.552;9.370;2023-04-29T04:12:41;5.43;;;2.50;;
4601;SDS011;2313;48.552;9.370;2023-04-29T04:15:06;3.63;;;1.87;;
4601;SDS011;2313;48.552;9.370;2023-04-29T04:17:32;3.03;;;1.90;;
4601;SDS011;2313;48.552;9.370;2023-04-29T04:19:58;2.90;;;2.10;;
4601;SDS011;2313;48.552;9.370;2023-04-29T04:22:23;2.40;;;2.20;;
4601;SDS011;2313;48.552;9.370;2023-04-29T04:24:49;5.90;;;2.13;;
4601;SDS011;2313;48.552;9.370;2023-04-29T04:27:14;4.10;;;2.00;;
4601;SDS011;2313;48.552;9.370;2023-04-29T04:29:40;5.30;;;2.20;;
4601;SDS011;2313;48.552;9.370;2023-04-29T04:32:06;2.37;;;2.17;;
4601;SDS011;2313;48.552;9.370;2023-04-29T04:34:31;3.63;;;2.10;;
4601;SDS011;2313;48.552;9.370;2023-04-29T04:36:57;2.80;;;2.60;;
4601;SDS011;2313;48.552;9.370;2023-04-29T04:39:23;5.67;;;2.00;;
4601;SDS011;2313;48.552;9.370;2023-04-29T04:41:48;2.10;;;2.00;;
4601;SDS011;2313;48.552;9.370;2023-04-29T04:44:14;2.00;;;1.90;;
4601;SDS011;2313;48.552;9.370;2023-04-29T04:46:40;2.77;;;2.00;;
4601;SDS011;2313;48.552;9.370;2023-04-29T04:49:06;2.57;;;2.37;;
4601;SDS011;2313;48.552;9.370;2023-04-29T04:51:32;2.97;;;2.10;;
4601;SDS011;2313;48.552;9.370;2023-04-29T04:53:57;2.93;;;2.50;;
4601;SDS011;2313;48.552;9.370;2023-04-29T04:56:23;3.03;;;2.20;;
4601;SDS011;2313;48.552;9.370;2023-04-29T04:58:48;2.27;;;1.97;;
4601;SDS011;2313;48.552;9.370;2023-04-29T05:01:14;4.03;;;2.53;;
4601;SDS011;2313;48.552;9.370;2023-04-29T05:03:40;6.80;;;2.57;;
4601;SDS011;2313;48.552;9.370;2023-04-29T05:06:05;6.03;;;2.13;;
4601;SDS011;2313;48.552;9.370;2023-04-29T05:08:31;4.77;;;2.63;;
4601;SDS011;2313;48.552;9.370;2023-04-29T05:10:56;3.23;;;2.40;;
4601;SDS011;2313;48.552;9.370;2023-04-29T05:13:22;2.50;;;2.30;;
4601;SDS011;2313;48.552;9.370;2023-04-29T05:15:49;2.40;;;2.30;;
4601;SDS011;2313;48.552;9.370;2023-04-29T05:18:15;3.53;;;2.73;;
4601;SDS011;2313;48.552;9.370;2023-04-29T05:20:41;2.23;;;2.07;;
4601;SDS011;2313;48.552;9.370;2023-04-29T05:23:06;3.57;;;2.43;;
4601;SDS011;2313;48.552;9.370;2023-04-29T05:25:32;4.20;;;2.47;;
4601;SDS011;2313;48.552;9.370;2023-04-29T05:27:58;4.43;;;2.80;;
4601;SDS011;2313;48.552;9.370;2023-04-29T05:30:24;3.37;;;3.07;;
4601;SDS011;2313;48.552;9.370;2023-04-29T05:32:50;3.17;;;2.80;;
4601;SDS011;2313;48.552;9.370;2023-04-29T05:35:15;3.90;;;2.80;;
4601;SDS011;2313;48.552;9.370;2023-04-29T05:37:41;2.50;;;2.30;;
4601;SDS011;2313;48.552;9.370;2023-04-29T05:40:07;5.17;;;3.00;;
4601;SDS011;2313;48.552;9.370;2023-04-29T05:42:33;2.83;;;2.63;;
4601;SDS011;2313;48.552;9.370;2023-04-29T05:44:59;4.70;;;3.43;;
4601;SDS011;2313;48.552;9.370;2023-04-29T05:47:24;2.93;;;2.73;;
4601;SDS011;2313;48.552;9.370;2023-04-29T05:49:50;2.40;;;2.30;;
4601;SDS011;2313;48.552;9.370;2023-04-29T05:52:16;4.70;;;2.80;;
4601;SDS011;2313;48.552;9.370;2023-04-29T05:54:41;2.93;;;2.73;;
4601;SDS011;2313;48.552;9.370;2023-04-29T05:57:07;2.50;;;2.40;;
4601;SDS011;2313;48.552;9.370;2023-04-29T05:59:33;3.10;;;2.80;;
4601;SDS011;2313;48.552;9.370;2023-04-29T06:01:58;2.80;;;2.60;;
4601;SDS011;2313;48.552;9.370;2023-04-29T06:04:24;4.57;;;2.60;;
4601;SDS011;2313;48.552;9.370;2023-04-29T06:06:50;2.60;;;2.30;;
4601;SDS011;2313;48.552;9.370;2023-04-29T06:09:18;3.53;;;2.20;;
4601;SDS011;2313;48.552;9.370;2023-04-29T06:11:44;4.00;;;1.97;;
4601;SDS011;2313;48.552;9.370;2023-04-29T06:14:13;2.83;;;2.40;;
4601;SDS011;2313;48.552;9.370;2023-04-29T06:16:39;3.03;;;2.67;;
4601;SDS011;2313;48.552;9.370;2023-04-29T06:19:04;2.43;;;2.10;;
4601;SDS011;2313;48.552;9.370;2023-04-29T06:21:30;5.93;;;2.90;;
4601;SDS011;2313;48.552;9.370;2023-04-29T06:23:56;3.03;;;2.73;;
4601;SDS011;2313;48.552;9.370;2023-04-29T06:26:22;1.83;;;1.73;;
4601;SDS011;2313;48.552;9.370;2023-04-29T06:28:48;2.13;;;2.03;;
4601;SDS011;2313;48.552;9.370;2023-04-29T06:31:14;2.83;;;1.70;;
4601;SDS011;2313;48.552;9.370;2023-04-29T06:33:40;3.60;;;2.17;;
4601;SDS011;2313;48.552;9.370;2023-04-29T06:36:06;4.73;;;2.90;;
4601;SDS011;2313;48.552;9.370;2023-04-29T06:38:32;3.00;;;2.80;;
4601;SDS011;2313;48.552;9.370;2023-04-29T06:40:58;3.73;;;3.10;;
4601;SDS011;2313;48.552;9.370;2023-04-29T06:43:28;3.67;;;2.77;;
4601;SDS011;2313;48.552;9.370;2023-04-29T06:45:54;2.60;;;2.40;;
4601;SDS011;2313;48.552;9.370;2023-04-29T06:48:20;2.40;;;2.30;;
4601;SDS011;2313;48.552;9.370;2023-04-29T06:50:52;2.30;;;2.10;;
4601;SDS011;2313;48.552;9.370;2023-04-29T06:53:19;1.80;;;1.67;;
4601;SDS011;2313;48.552;9.370;2023-04-29T06:55:45;2.37;;;2.20;;
4601;SDS011;2313;48.552;9.370;2023-04-29T06:58:14;4.73;;;3.60;;
4601;SDS011;2313;48.552;9.370;2023-04-29T07:00:43;2.90;;;2.57;;
4601;SDS011;2313;48.552;9.370;2023-04-29T07:03:12;5.73;;;2.47;;
4601;SDS011;2313;48.552;9.370;2023-04-29T07:05:38;5.33;;;2.17;;
4601;SDS011;2313;48.552;9.370;2023-04-29T07:08:05;4.00;;;2.13;;
4601;SDS011;2313;48.552;9.370;2023-04-29T07:10:31;2.40;;;2.20;;
4601;SDS011;2313;48.552;9.370;2023-04-29T07:12:57;2.73;;;2.50;;
4601;SDS011;2313;48.552;9.370;2023-04-29T07:15:24;4.30;;;2.80;;
4601;SDS011;2313;48.552;9.370;2023-04-29T07:17:51;2.57;;;2.37;;
4601;SDS011;2313;48.552;9.370;2023-04-29T07:20:17;6.40;;;2.10;;
4601;SDS011;2313;48.552;9.370;2023-04-29T07:22:43;2.80;;;2.10;;
4601;SDS011;2313;48.552;9.370;2023-04-29T07:25:08;4.30;;;2.43;;
4601;SDS011;2313;48.552;9.370;2023-04-29T07:27:35;3.70;;;1.97;;
4601;SDS011;2313;48.552;9.370;2023-04-29T07:30:01;2.37;;;2.17;;
4601;SDS011;2313;48.552;9.370;2023-04-29T07:32:27;2.60;;;2.40;;
4601;SDS011;2313;48.552;9.370;2023-04-29T07:34:55;3.90;;;2.37;;
4601;SDS011;2313;48.552;9.370;2023-04-29T07:37:21;5.07;;;3.33;;
4601;SDS011;2313;48.552;9.370;2023-04-29T07:39:47;8.70;;;3.30;;
4601;SDS011;2313;48.552;9.370;2023-04-29T07:42:12;3.30;;;2.73;;
4601;SDS011;2313;48.552;9.370;2023-04-29T07:44:38;2.27;;;2.07;;
4601;SDS011;2313;48.552;9.370;2023-04-29T07:47:04;1.70;;;1.60;;
4601;SDS011;2313;48.552;9.370;2023-04-29T07:49:30;1.80;;;1.70;;
4601;SDS011;2313;48.552;9.370;2023-04-29T07:51:55;6.70;;;1.70;;
4601;SDS011;2313;48.552;9.370;2023-04-29T07:54:21;1.33;;;1.23;;
4601;SDS011;2313;48.552;9.370;2023-04-29T07:56:47;7.70;;;2.07;;
4601;SDS011;2313;48.552;9.370;2023-04-29T07:59:13;3.50;;;1.30;;
4601;SDS011;2313;48.552;9.370;2023-04-29T08:01:39;1.70;;;1.60;;
4601;SDS011;2313;48.552;9.370;2023-04-29T08:04:06;2.13;;;1.90;;
4601;SDS011;2313;48.552;9.370;2023-04-29T08:06:32;1.63;;;1.53;;
4601;SDS011;2313;48.552;9.370;2023-04-29T08:08:58;1.53;;;1.30;;
4601;SDS011;2313;48.552;9.370;2023-04-29T08:11:24;1.53;;;1.43;;
4601;SDS011;2313;48.552;9.370;2023-04-29T08:13:50;2.80;;;1.97;;
4601;SDS011;2313;48.552;9.370;2023-04-29T08:16:16;1.47;;;1.37;;
4601;SDS011;2313;48.552;9.370;2023-04-29T08:18:41;1.20;;;0.93;;
4601;SDS011;2313;48.552;9.370;2023-04-29T08:21:07;1.17;;;1.07;;
4601;SDS011;2313;48.552;9.370;2023-04-29T08:23:35;1.30;;;1.07;;
4601;SDS011;2313;48.552;9.370;2023-04-29T08:26:01;1.30;;;1.20;;
4601;SDS011;2313;48.552;9.370;2023-04-29T08:28:27;2.80;;;1.03;;
4601;SDS011;2313;48.552;9.370;2023-04-29T08:30:53;3.53;;;1.60;;
4601;SDS011;2313;48.552;9.370;2023-04-29T08:33:19;1.60;;;1.50;;
4601;SDS011;2313;48.552;9.370;2023-04-29T08:35:45;1.27;;;1.17;;
4601;SDS011;2313;48.552;9.370;2023-04-29T08:38:10;1.57;;;1.13;;
4601;SDS011;2313;48.552;9.370;2023-04-29T08:40:40;1.30;;;1.20;;
4601;SDS011;2313;48.552;9.370;2023-04-29T08:43:09;1.87;;;1.17;;
4601;SDS011;2313;48.552;9.370;2023-04-29T08:45:35;1.30;;;1.07;;
4601;SDS011;2313;48.552;9.370;2023-04-29T08:48:01;0.80;;;0.80;;
4601;SDS011;2313;48.552;9.370;2023-04-29T08:50:30;1.30;;;0.87;;
4601;SDS011;2313;48.552;9.370;2023-04-29T08:53:01;1.40;;;1.10;;
4601;SDS011;2313;48.552;9.370;2023-04-29T08:55:26;1.63;;;0.80;;
4601;SDS011;2313;48.552;9.370;2023-04-29T08:57:53;1.00;;;0.90;;
4601;SDS011;2313;48.552;9.370;2023-04-29T09:00:20;1.47;;;0.63;;
4601;SDS011;2313;48.552;9.370;2023-04-29T09:02:49;1.10;;;0.80;;
4601;SDS011;2313;48.552;9.370;2023-04-29T09:05:15;1.13;;;0.90;;
4601;SDS011;2313;48.552;9.370;2023-04-29T09:07:41;2.90;;;0.90;;
4601;SDS011;2313;48.552;9.370;2023-04-29T09:10:09;3.40;;;0.87;;
4601;SDS011;2313;48.552;9.370;2023-04-29T09:12:35;3.23;;;0.70;;
4601;SDS011;2313;48.552;9.370;2023-04-29T09:15:01;0.90;;;0.60;;
4601;SDS011;2313;48.552;9.370;2023-04-29T09:17:38;1.23;;;0.80;;
4601;SDS011;2313;48.552;9.370;2023-04-29T09:20:24;1.00;;;0.70;;
4601;SDS011;2313;48.552;9.370;2023-04-29T09:22:59;0.80;;;0.60;;
4601;SDS011;2313;48.552;9.370;2023-04-29T09:25:27;0.93;;;0.67;;
4601;SDS011;2313;48.552;9.370;2023-04-29T09:27:53;1.70;;;0.90;;
4601;SDS011;2313;48.552;9.370;2023-04-29T09:30:20;1.07;;;0.97;;
4601;SDS011;2313;48.552;9.370;2023-04-29T09:33:06;2.80;;;0.87;;
4601;SDS011;2313;48.552;9.370;2023-04-29T09:35:32;1.87;;;1.17;;
4601;SDS011;2313;48.552;9.370;2023-04-29T09:38:11;2.23;;;0.80;;
4601;SDS011;2313;48.552;9.370;2023-04-29T09:40:38;2.90;;;1.57;;
4601;SDS011;2313;48.552;9.370;2023-04-29T09:43:16;1.00;;;0.90;;
4601;SDS011;2313;48.552;9.370;2023-04-29T09:45:43;4.10;;;1.00;;
4601;SDS011;2313;48.552;9.370;2023-04-29T09:48:11;1.00;;;0.90;;
4601;SDS011;2313;48.552;9.370;2023-04-29T09:50:38;2.17;;;1.30;;
4601;SDS011;2313;48.552;9.370;2023-04-29T09:53:06;6.53;;;1.70;;
4601;SDS011;2313;48.552;9.370;2023-04-29T09:55:36;8.53;;;2.00;;
4601;SDS011;2313;48.552;9.370;2023-04-29T09:58:32;4.40;;;1.00;;
4601;SDS011;2313;48.552;9.370;2023-04-29T10:01:02;2.87;;;1.60;;
4601;SDS011;2313;48.552;9.370;2023-04-29T10:03:30;1.83;;;1.00;;
4601;SDS011;2313;48.552;9.370;2023-04-29T10:05:58;1.53;;;1.00;;
4601;SDS011;2313;48.552;9.370;2023-04-29T10:08:25;2.83;;;1.00;;
4601;SDS011;2313;48.552;9.370;2023-04-29T10:10:51;1.97;;;0.90;;
4601;SDS011;2313;48.552;9.370;2023-04-29T10:13:22;8.13;;;1.67;;
4601;SDS011;2313;48.552;9.370;2023-04-29T10:15:51;8.93;;;3.17;;
4601;SDS011;2313;48.552;9.370;2023-04-29T10:18:40;9.17;;;1.37;;
4601;SDS011;2313;48.552;9.370;2023-04-29T10:21:08;3.23;;;0.90;;
4601;SDS011;2313;48.552;9.370;2023-04-29T10:23:36;10.77;;;1.47;;
4601;SDS011;2313;48.552;9.370;2023-04-29T10:26:01;2.00;;;1.37;;
4601;SDS011;2313;48.552;9.370;2023-04-29T10:28:31;2.40;;;1.57;;
4601;SDS011;2313;48.552;9.370;2023-04-29T10:30:57;2.63;;;1.10;;
4601;SDS011;2313;48.552;9.370;2023-04-29T10:33:26;2.50;;;1.60;;
4601;SDS011;2313;48.552;9.370;2023-04-29T10:35:55;28.97;;;8.90;;
4601;SDS011;2313;48.552;9.370;2023-04-29T10:38:40;1.67;;;1.37;;
4601;SDS011;2313;48.552;9.370;2023-04-29T10:41:18;5.43;;;2.40;;
4601;SDS011;2313;48.552;9.370;2023-04-29T10:43:50;2.37;;;1.70;;
4601;SDS011;2313;48.552;9.370;2023-04-29T10:46:22;2.10;;;1.90;;
4601;SDS011;2313;48.552;9.370;2023-04-29T10:49:10;2.33;;;2.13;;
4601;SDS011;2313;48.552;9.370;2023-04-29T10:51:40;3.10;;;1.80;;
4601;SDS011;2313;48.552;9.370;2023-04-29T10:54:09;2.47;;;1.80;;
4601;SDS011;2313;48.552;9.370;2023-04-29T10:56:43;1.83;;;1.73;;
4601;SDS011;2313;48.552;9.370;2023-04-29T10:59:20;2.90;;;1.70;;
4601;SDS011;2313;48.552;9.370;2023-04-29T11:01:50;2.53;;;1.60;;
4601;SDS011;2313;48.552;9.370;2023-04-29T11:04:17;4.27;;;1.97;;
4601;SDS011;2313;48.552;9.370;2023-04-29T11:06:51;3.77;;;2.20;;
4601;SDS011;2313;48.552;9.370;2023-04-29T11:17:08;3.60;;;1.90;;
4601;SDS011;2313;48.552;9.370;2023-04-29T11:19:39;3.93;;;1.57;;
4601;SDS011;2313;48.552;9.370;2023-04-29T11:22:10;2.40;;;2.20;;
4601;SDS011;2313;48.552;9.370;2023-04-29T11:24:51;2.00;;;1.90;;
4601;SDS011;2313;48.552;9.370;2023-04-29T11:27:17;2.73;;;1.67;;
4601;SDS011;2313;48.552;9.370;2023-04-29T11:29:44;1.70;;;1.40;;
4601;SDS011;2313;48.552;9.370;2023-04-29T11:32:11;6.13;;;2.40;;
4601;SDS011;2313;48.552;9.370;2023-04-29T11:34:37;3.80;;;2.20;;
4601;SDS011;2313;48.552;9.370;2023-04-29T11:37:03;5.97;;;2.00;;
4601;SDS011;2313;48.552;9.370;2023-04-29T11:39:32;3.33;;;1.97;;
4601;SDS011;2313;48.552;9.370;2023-04-29T11:42:03;1.70;;;1.40;;
4601;SDS011;2313;48.552;9.370;2023-04-29T11:44:30;1.80;;;1.47;;
4601;SDS011;2313;48.552;9.370;2023-04-29T11:47:03;3.10;;;1.60;;
4601;SDS011;2313;48.552;9.370;2023-04-29T11:49:33;2.87;;;1.17;;
4601;SDS011;2313;48.552;9.370;2023-04-29T11:51:59;1.53;;;1.00;;
4601;SDS011;2313;48.552;9.370;2023-04-29T11:54:28;1.80;;;1.57;;
4601;SDS011;2313;48.552;9.370;2023-04-29T11:56:54;1.63;;;1.30;;
4601;SDS011;2313;48.552;9.370;2023-04-29T11:59:20;3.13;;;1.77;;
4601;SDS011;2313;48.552;9.370;2023-04-29T12:01:47;2.17;;;1.97;;
4601;SDS011;2313;48.552;9.370;2023-04-29T12:04:13;2.00;;;1.80;;
4601;SDS011;2313;48.552;9.370;2023-04-29T12:06:40;2.33;;;2.23;;
4601;SDS011;2313;48.552;9.370;2023-04-29T12:09:06;2.20;;;2.00;;
4601;SDS011;2313;48.552;9.370;2023-04-29T12:11:32;3.63;;;2.00;;
4601;SDS011;2313;48.552;9.370;2023-04-29T12:13:59;4.20;;;2.20;;
4601;SDS011;2313;48.552;9.370;2023-04-29T12:16:27;3.33;;;2.00;;
4601;SDS011;2313;48.552;9.370;2023-04-29T12:18:54;2.13;;;1.73;;
4601;SDS011;2313;48.552;9.370;2023-04-29T12:21:20;2.00;;;1.90;;
4601;SDS011;2313;48.552;9.370;2023-04-29T12:23:46;2.03;;;1.93;;
4601;SDS011;2313;48.552;9.370;2023-04-29T12:26:12;2.03;;;1.93;;
4601;SDS011;2313;48.552;9.370;2023-04-29T12:28:41;2.90;;;2.00;;
4601;SDS011;2313;48.552;9.370;2023-04-29T12:31:07;2.33;;;1.83;;
4601;SDS011;2313;48.552;9.370;2023-04-29T12:33:37;4.80;;;2.30;;
4601;SDS011;2313;48.552;9.370;2023-04-29T12:36:14;2.90;;;2.37;;
4601;SDS011;2313;48.552;9.370;2023-04-29T12:38:43;2.33;;;2.13;;
4601;SDS011;2313;48.552;9.370;2023-04-29T12:41:09;6.30;;;2.27;;
4601;SDS011;2313;48.552;9.370;2023-04-29T12:43:37;2.80;;;2.43;;
4601;SDS011;2313;48.552;9.370;2023-04-29T12:46:03;2.77;;;2.50;;
4601;SDS011;2313;48.552;9.370;2023-04-29T12:48:34;4.10;;;2.33;;
4601;SDS011;2313;48.552;9.370;2023-04-29T12:51:08;2.83;;;2.07;;
4601;SDS011;2313;48.552;9.370;2023-04-29T12:53:34;6.00;;;2.17;;
4601;SDS011;2313;48.552;9.370;2023-04-29T12:56:00;1.80;;;1.70;;
4601;SDS011;2313;48.552;9.370;2023-04-29T12:58:29;1.90;;;1.80;;
4601;SDS011;2313;48.552;9.370;2023-04-29T13:00:55;2.53;;;2.23;;
4601;SDS011;2313;48.552;9.370;2023-04-29T13:03:21;2.70;;;1.90;;
4601;SDS011;2313;48.552;9.370;2023-04-29T13:05:47;7.37;;;2.20;;
4601;SDS011;2313;48.552;9.370;2023-04-29T13:08:16;6.07;;;2.40;;
4601;SDS011;2313;48.552;9.370;2023-04-29T13:10:42;2.43;;;2.23;;
4601;SDS011;2313;48.552;9.370;2023-04-29T13:13:07;2.10;;;1.93;;
4601;SDS011;2313;48.552;9.370;2023-04-29T13:15:36;3.63;;;2.63;;
4601;SDS011;2313;48.552;9.370;2023-04-29T13:18:05;4.10;;;2.70;;
4601;SDS011;2313;48.552;9.370;2023-04-29T13:20:31;7.70;;;3.20;;
4601;SDS011;2313;48.552;9.370;2023-04-29T13:22:57;3.83;;;2.60;;
4601;SDS011;2313;48.552;9.370;2023-04-29T13:25:22;9.20;;;3.77;;
4601;SDS011;2313;48.552;9.370;2023-04-29T13:27:48;3.70;;;3.10;;
4601;SDS011;2313;48.552;9.370;2023-04-29T13:30:13;3.33;;;2.90;;
4601;SDS011;2313;48.552;9.370;2023-04-29T13:32:39;4.23;;;3.73;;
4601;SDS011;2313;48.552;9.370;2023-04-29T13:35:06;4.30;;;2.90;;
4601;SDS011;2313;48.552;9.370;2023-04-29T13:37:32;4.40;;;2.70;;
4601;SDS011;2313;48.552;9.370;2023-04-29T13:39:58;4.63;;;3.20;;
4601;SDS011;2313;48.552;9.370;2023-04-29T13:42:24;5.63;;;3.00;;
4601;SDS011;2313;48.552;9.370;2023-04-29T13:44:49;3.67;;;3.20;;
4601;SDS011;2313;48.552;9.370;2023-04-29T13:47:15;5.23;;;3.33;;
4601;SDS011;2313;48.552;9.370;2023-04-29T13:49:41;6.30;;;3.80;;
4601;SDS011;2313;48.552;9.370;2023-04-29T13:52:10;4.40;;;3.53;;
4601;SDS011;2313;48.552;9.370;2023-04-29T13:54:37;4.50;;;3.70;;
4601;SDS011;2313;48.552;9.370;2023-04-29T13:57:03;3.70;;;3.27;;
4601;SDS011;2313;48.552;9.370;2023-04-29T13:59:32;6.23;;;3.60;;
4601;SDS011;2313;48.552;9.370;2023-04-29T14:01:59;5.23;;;3.10;;
4601;SDS011;2313;48.552;9.370;2023-04-29T14:04:25;4.67;;;4.00;;
4601;SDS011;2313;48.552;9.370;2023-04-29T14:06:52;9.83;;;4.10;;
4601;SDS011;2313;48.552;9.370;2023-04-29T14:09:18;4.67;;;4.10;;
4601;SDS011;2313;48.552;9.370;2023-04-29T14:11:44;4.23;;;3.77;;
4601;SDS011;2313;48.552;9.370;2023-04-29T14:14:10;5.27;;;4.77;;
4601;SDS011;2313;48.552;9.370;2023-04-29T14:16:36;6.73;;;4.60;;
4601;SDS011;2313;48.552;9.370;2023-04-29T14:19:02;4.60;;;4.10;;
4601;SDS011;2313;48.552;9.370;2023-04-29T14:21:28;7.23;;;5.00;;
4601;SDS011;2313;48.552;9.370;2023-04-29T14:23:54;7.53;;;4.63;;
4601;SDS011;2313;48.552;9.370;2023-04-29T14:26:20;6.17;;;4.80;;
4601;SDS011;2313;48.552;9.370;2023-04-29T14:28:48;6.57;;;3.80;;
4601;SDS011;2313;48.552;9.370;2023-04-29T14:31:21;5.60;;;4.10;;
4601;SDS011;2313;48.552;9.370;2023-04-29T14:33:52;7.97;;;5.20;;
4601;SDS011;2313;48.552;9.370;2023-04-29T14:36:18;5.20;;;4.70;;
4601;SDS011;2313;48.552;9.370;2023-04-29T14:38:43;4.80;;;4.40;;
4601;SDS011;2313;48.552;9.370;2023-04-29T14:41:09;8.90;;;4.77;;
4601;SDS011;2313;48.552;9.370;2023-04-29T14:43:35;5.57;;;4.23;;
4601;SDS011;2313;48.552;9.370;2023-04-29T14:46:00;7.30;;;3.73;;
4601;SDS011;2313;48.552;9.370;2023-04-29T14:48:26;4.90;;;4.50;;
4601;SDS011;2313;48.552;9.370;2023-04-29T14:50:52;5.33;;;4.10;;
4601;SDS011;2313;48.552;9.370;2023-04-29T14:53:18;5.43;;;4.93;;
4601;SDS011;2313;48.552;9.370;2023-04-29T14:55:45;9.20;;;4.77;;
4601;SDS011;2313;48.552;9.370;2023-04-29T14:58:11;6.03;;;4.20;;
4601;SDS011;2313;48.552;9.370;2023-04-29T15:00:37;7.97;;;4.00;;
4601;SDS011;2313;48.552;9.370;2023-04-29T15:03:02;6.70;;;4.80;;
4601;SDS011;2313;48.552;9.370;2023-04-29T15:05:29;7.90;;;5.23;;
4601;SDS011;2313;48.552;9.370;2023-04-29T15:07:55;4.97;;;4.43;;
4601;SDS011;2313;48.552;9.370;2023-04-29T15:10:22;6.33;;;5.20;;
4601;SDS011;2313;48.552;9.370;2023-04-29T15:12:48;6.70;;;5.17;;
4601;SDS011;2313;48.552;9.370;2023-04-29T15:15:15;5.20;;;4.70;;
4601;SDS011;2313;48.552;9.370;2023-04-29T15:17:41;5.43;;;4.93;;
4601;SDS011;2313;48.552;9.370;2023-04-29T15:20:07;6.27;;;5.67;;
4601;SDS011;2313;48.552;9.370;2023-04-29T15:22:33;9.40;;;5.10;;
4601;SDS011;2313;48.552;9.370;2023-04-29T15:24:59;7.00;;;5.83;;
4601;SDS011;2313;48.552;9.370;2023-04-29T15:27:25;25.00;;;12.03;;
4601;SDS011;2313;48.552;9.370;2023-04-29T15:29:50;10.17;;;6.40;;
4601;SDS011;2313;48.552;9.370;2023-04-29T15:32:18;10.37;;;7.30;;
4601;SDS011;2313;48.552;9.370;2023-04-29T15:34:43;4.90;;;4.10;;
4601;SDS011;2313;48.552;9.370;2023-04-29T15:37:09;10.03;;;4.50;;
4601;SDS011;2313;48.552;9.370;2023-04-29T15:39:35;9.50;;;4.80;;
4601;SDS011;2313;48.552;9.370;2023-04-29T15:42:00;5.27;;;4.77;;
4601;SDS011;2313;48.552;9.370;2023-04-29T15:44:27;7.00;;;5.00;;